sensor_id;sensor_type;location;lat;lon;timestamp;P1;durP1;ratioP1;P2;durP2;ratioP2
58306;SDS011;44116;50.884;4.768;2023-02-28T00:00:17;11.3;;;5.9;;
58306;SDS011;44116;50.884;4.768;2023-02-28T00:02:15;11.1;;;6.2;;
58306;SDS011;44116;50.884;4.768;2023-02-28T00:04:15;11.6;;;6.7;;
58306;SDS011;44116;50.884;4.768;2023-02-28T00:06:15;9.3;;;6.1;;
58306;SDS011;44116;50.884;4.768;2023-02-28T00:08:14;10.6;;;6.3;;
58306;SDS011;44116;50.884;4.768;2023-02-28T00:10:16;10.6;;;6.4;;
58306;SDS011;44116;50.884;4.768;2023-02-28T00:12:13;9.6;;;6.2;;
58306;SDS011;44116;50.884;4.768;2023-02-28T00:14:12;12.5;;;5.8;;
58306;SDS011;44116;50.884;4.768;2023-02-28T00:16:13;11.3;;;6.8;;
58306;SDS011;44116;50.884;4.768;2023-02-28T00:18:11;11.6;;;6.5;;
58306;SDS011;44116;50.884;4.768;2023-02-28T00:20:13;9.8;;;6.0;;
58306;SDS011;44116;50.884;4.768;2023-02-28T00:24:09;10.4;;;6.4;;
58306;SDS011;44116;50.884;4.768;2023-02-28T00:26:09;12.8;;;6.5;;
58306;SDS011;44116;50.884;4.768;2023-02-28T00:28:08;11.6;;;6.8;;
58306;SDS011;44116;50.884;4.768;2023-02-28T00:30:11;11.7;;;6.5;;
58306;SDS011;44116;50.884;4.768;2023-02-28T00:32:07;11.7;;;5.9;;
58306;SDS011;44116;50.884;4.768;2023-02-28T00:34:07;11.1;;;6.0;;
58306;SDS011;44116;50.884;4.768;2023-02-28T00:36:09;11.2;;;6.4;;
58306;SDS011;44116;50.884;4.768;2023-02-28T00:38:05;10.5;;;6.0;;
58306;SDS011;44116;50.884;4.768;2023-02-28T00:42:05;10.4;;;6.5;;
58306;SDS011;44116;50.884;4.768;2023-02-28T00:44:04;10.9;;;5.9;;
58306;SDS011;44116;50.884;4.768;2023-02-28T00:46:04;9.7;;;5.8;;
58306;SDS011;44116;50.884;4.768;2023-02-28T00:48:03;10.3;;;6.4;;
58306;SDS011;44116;50.884;4.768;2023-02-28T00:50:03;9.5;;;5.8;;
58306;SDS011;44116;50.884;4.768;2023-02-28T00:54:01;8.8;;;6.2;;
58306;SDS011;44116;50.884;4.768;2023-02-28T00:56:01;9.2;;;5.9;;
58306;SDS011;44116;50.884;4.768;2023-02-28T00:58:00;10.8;;;6.1;;
58306;SDS011;44116;50.884;4.768;2023-02-28T00:59:59;9.1;;;6.0;;
58306;SDS011;44116;50.884;4.768;2023-02-28T01:01:59;17.2;;;6.3;;
58306;SDS011;44116;50.884;4.768;2023-02-28T01:03:58;8.8;;;6.0;;
58306;SDS011;44116;50.884;4.768;2023-02-28T01:05:58;9.1;;;6.1;;
58306;SDS011;44116;50.884;4.768;2023-02-28T01:07:57;9.9;;;6.0;;
58306;SDS011;44116;50.884;4.768;2023-02-28T01:09:56;10.7;;;6.8;;
58306;SDS011;44116;50.884;4.768;2023-02-28T01:11:56;11.6;;;6.7;;
58306;SDS011;44116;50.884;4.768;2023-02-28T01:13:56;9.4;;;6.0;;
58306;SDS011;44116;50.884;4.768;2023-02-28T01:15:55;12.1;;;6.5;;
58306;SDS011;44116;50.884;4.768;2023-02-28T01:17:54;10.3;;;6.4;;
58306;SDS011;44116;50.884;4.768;2023-02-28T01:19:55;11.8;;;6.7;;
58306;SDS011;44116;50.884;4.768;2023-02-28T01:23:56;9.6;;;6.4;;
58306;SDS011;44116;50.884;4.768;2023-02-28T01:25:52;11.8;;;6.5;;
58306;SDS011;44116;50.884;4.768;2023-02-28T01:29:51;9.9;;;6.1;;
58306;SDS011;44116;50.884;4.768;2023-02-28T01:31:50;9.7;;;6.3;;
58306;SDS011;44116;50.884;4.768;2023-02-28T01:33:50;10.2;;;6.1;;
58306;SDS011;44116;50.884;4.768;2023-02-28T01:35:49;10.0;;;6.7;;
58306;SDS011;44116;50.884;4.768;2023-02-28T01:37:49;11.8;;;6.2;;
58306;SDS011;44116;50.884;4.768;2023-02-28T01:39:48;12.8;;;6.4;;
58306;SDS011;44116;50.884;4.768;2023-02-28T01:41:48;9.9;;;6.3;;
58306;SDS011;44116;50.884;4.768;2023-02-28T01:45:47;11.9;;;6.4;;
58306;SDS011;44116;50.884;4.768;2023-02-28T01:47:48;10.3;;;6.8;;
58306;SDS011;44116;50.884;4.768;2023-02-28T01:49:46;10.5;;;6.0;;
58306;SDS011;44116;50.884;4.768;2023-02-28T01:51:48;10.7;;;5.9;;
58306;SDS011;44116;50.884;4.768;2023-02-28T01:53:48;10.7;;;6.1;;
58306;SDS011;44116;50.884;4.768;2023-02-28T01:55:47;10.6;;;6.3;;
58306;SDS011;44116;50.884;4.768;2023-02-28T01:59:45;8.9;;;5.8;;
58306;SDS011;44116;50.884;4.768;2023-02-28T02:01:42;10.4;;;6.4;;
58306;SDS011;44116;50.884;4.768;2023-02-28T02:03:41;11.0;;;6.5;;
58306;SDS011;44116;50.884;4.768;2023-02-28T02:05:41;11.5;;;6.6;;
58306;SDS011;44116;50.884;4.768;2023-02-28T02:07:43;11.3;;;7.4;;
58306;SDS011;44116;50.884;4.768;2023-02-28T02:09:40;11.1;;;6.7;;
58306;SDS011;44116;50.884;4.768;2023-02-28T02:11:41;11.5;;;6.8;;
58306;SDS011;44116;50.884;4.768;2023-02-28T02:13:53;12.4;;;6.3;;
58306;SDS011;44116;50.884;4.768;2023-02-28T02:15:41;10.3;;;6.4;;
58306;SDS011;44116;50.884;4.768;2023-02-28T02:21:54;9.5;;;6.2;;
58306;SDS011;44116;50.884;4.768;2023-02-28T02:25:39;12.2;;;6.9;;
58306;SDS011;44116;50.884;4.768;2023-02-28T02:27:48;10.8;;;7.0;;
58306;SDS011;44116;50.884;4.768;2023-02-28T02:29:47;10.6;;;6.5;;
58306;SDS011;44116;50.884;4.768;2023-02-28T02:33:47;11.3;;;6.7;;
58306;SDS011;44116;50.884;4.768;2023-02-28T02:35:36;10.4;;;6.5;;
58306;SDS011;44116;50.884;4.768;2023-02-28T02:37:36;12.1;;;6.4;;
58306;SDS011;44116;50.884;4.768;2023-02-28T02:39:36;11.1;;;7.1;;
58306;SDS011;44116;50.884;4.768;2023-02-28T02:41:35;9.4;;;6.7;;
58306;SDS011;44116;50.884;4.768;2023-02-28T02:47:30;11.3;;;7.1;;
58306;SDS011;44116;50.884;4.768;2023-02-28T02:49:32;12.2;;;6.9;;
58306;SDS011;44116;50.884;4.768;2023-02-28T02:51:30;12.2;;;7.0;;
58306;SDS011;44116;50.884;4.768;2023-02-28T02:53:30;11.4;;;7.1;;
58306;SDS011;44116;50.884;4.768;2023-02-28T02:55:27;10.4;;;7.3;;
58306;SDS011;44116;50.884;4.768;2023-02-28T02:57:30;13.1;;;6.3;;
58306;SDS011;44116;50.884;4.768;2023-02-28T02:59:26;11.6;;;6.8;;
58306;SDS011;44116;50.884;4.768;2023-02-28T03:01:26;11.1;;;6.9;;
58306;SDS011;44116;50.884;4.768;2023-02-28T03:05:28;10.6;;;7.2;;
58306;SDS011;44116;50.884;4.768;2023-02-28T03:07:23;11.3;;;7.4;;
58306;SDS011;44116;50.884;4.768;2023-02-28T03:09:24;11.5;;;7.2;;
58306;SDS011;44116;50.884;4.768;2023-02-28T03:11:22;12.0;;;7.4;;
58306;SDS011;44116;50.884;4.768;2023-02-28T03:13:37;10.8;;;7.1;;
58306;SDS011;44116;50.884;4.768;2023-02-28T03:15:26;10.9;;;7.3;;
58306;SDS011;44116;50.884;4.768;2023-02-28T03:17:30;13.7;;;7.2;;
58306;SDS011;44116;50.884;4.768;2023-02-28T03:19:31;12.0;;;6.9;;
58306;SDS011;44116;50.884;4.768;2023-02-28T03:21:25;11.7;;;7.5;;
58306;SDS011;44116;50.884;4.768;2023-02-28T03:23:23;12.3;;;7.7;;
58306;SDS011;44116;50.884;4.768;2023-02-28T03:25:22;12.6;;;7.4;;
58306;SDS011;44116;50.884;4.768;2023-02-28T03:27:23;12.7;;;7.5;;
58306;SDS011;44116;50.884;4.768;2023-02-28T03:29:23;14.6;;;7.9;;
58306;SDS011;44116;50.884;4.768;2023-02-28T03:31:21;14.5;;;8.3;;
58306;SDS011;44116;50.884;4.768;2023-02-28T03:33:18;14.4;;;8.4;;
58306;SDS011;44116;50.884;4.768;2023-02-28T03:35:18;13.3;;;7.5;;
58306;SDS011;44116;50.884;4.768;2023-02-28T03:37:17;12.1;;;7.1;;
58306;SDS011;44116;50.884;4.768;2023-02-28T03:39:16;11.5;;;7.3;;
58306;SDS011;44116;50.884;4.768;2023-02-28T03:41:17;10.8;;;7.4;;
58306;SDS011;44116;50.884;4.768;2023-02-28T03:43:18;13.0;;;8.2;;
58306;SDS011;44116;50.884;4.768;2023-02-28T03:45:15;14.2;;;7.4;;
58306;SDS011;44116;50.884;4.768;2023-02-28T03:47:16;12.8;;;7.8;;
58306;SDS011;44116;50.884;4.768;2023-02-28T03:49:15;12.1;;;7.9;;
58306;SDS011;44116;50.884;4.768;2023-02-28T03:51:15;13.2;;;7.5;;
58306;SDS011;44116;50.884;4.768;2023-02-28T03:53:12;15.5;;;8.0;;
58306;SDS011;44116;50.884;4.768;2023-02-28T03:55:11;12.3;;;7.9;;
58306;SDS011;44116;50.884;4.768;2023-02-28T03:57:12;13.2;;;8.1;;
58306;SDS011;44116;50.884;4.768;2023-02-28T03:59:13;12.2;;;7.7;;
58306;SDS011;44116;50.884;4.768;2023-02-28T04:01:11;12.8;;;8.0;;
58306;SDS011;44116;50.884;4.768;2023-02-28T04:03:07;15.3;;;8.3;;
58306;SDS011;44116;50.884;4.768;2023-02-28T04:05:07;13.8;;;8.6;;
58306;SDS011;44116;50.884;4.768;2023-02-28T04:07:07;12.0;;;8.1;;
58306;SDS011;44116;50.884;4.768;2023-02-28T04:09:06;14.0;;;8.6;;
58306;SDS011;44116;50.884;4.768;2023-02-28T04:11:08;14.3;;;8.5;;
58306;SDS011;44116;50.884;4.768;2023-02-28T04:13:04;11.9;;;8.3;;
58306;SDS011;44116;50.884;4.768;2023-02-28T04:15:04;13.5;;;8.5;;
58306;SDS011;44116;50.884;4.768;2023-02-28T04:17:03;15.4;;;8.6;;
58306;SDS011;44116;50.884;4.768;2023-02-28T04:19:03;13.5;;;8.9;;
58306;SDS011;44116;50.884;4.768;2023-02-28T04:23:01;12.9;;;8.1;;
58306;SDS011;44116;50.884;4.768;2023-02-28T04:25:00;14.0;;;8.6;;
58306;SDS011;44116;50.884;4.768;2023-02-28T04:27:00;12.9;;;8.7;;
58306;SDS011;44116;50.884;4.768;2023-02-28T04:29:00;14.3;;;8.9;;
58306;SDS011;44116;50.884;4.768;2023-02-28T04:32:58;11.2;;;8.2;;
58306;SDS011;44116;50.884;4.768;2023-02-28T04:34:57;15.0;;;8.6;;
58306;SDS011;44116;50.884;4.768;2023-02-28T04:40:57;12.9;;;8.2;;
58306;SDS011;44116;50.884;4.768;2023-02-28T04:42:55;14.5;;;8.5;;
58306;SDS011;44116;50.884;4.768;2023-02-28T04:44:54;11.7;;;8.1;;
58306;SDS011;44116;50.884;4.768;2023-02-28T04:46:54;14.8;;;8.8;;
58306;SDS011;44116;50.884;4.768;2023-02-28T04:48:53;14.6;;;8.9;;
58306;SDS011;44116;50.884;4.768;2023-02-28T04:50:52;15.4;;;9.0;;
58306;SDS011;44116;50.884;4.768;2023-02-28T04:52:52;14.9;;;9.4;;
58306;SDS011;44116;50.884;4.768;2023-02-28T04:54:51;13.8;;;9.1;;
58306;SDS011;44116;50.884;4.768;2023-02-28T05:00:50;17.1;;;9.3;;
58306;SDS011;44116;50.884;4.768;2023-02-28T05:02:49;13.4;;;8.8;;
58306;SDS011;44116;50.884;4.768;2023-02-28T05:04:49;15.8;;;9.4;;
58306;SDS011;44116;50.884;4.768;2023-02-28T05:06:48;16.6;;;10.0;;
58306;SDS011;44116;50.884;4.768;2023-02-28T05:08:47;15.3;;;9.5;;
58306;SDS011;44116;50.884;4.768;2023-02-28T05:10:47;12.8;;;9.3;;
58306;SDS011;44116;50.884;4.768;2023-02-28T05:12:46;21.2;;;10.2;;
58306;SDS011;44116;50.884;4.768;2023-02-28T05:14:45;15.4;;;9.5;;
58306;SDS011;44116;50.884;4.768;2023-02-28T05:16:45;14.3;;;9.1;;
58306;SDS011;44116;50.884;4.768;2023-02-28T05:18:45;15.5;;;9.7;;
58306;SDS011;44116;50.884;4.768;2023-02-28T05:20:44;15.4;;;10.1;;
58306;SDS011;44116;50.884;4.768;2023-02-28T05:22:44;16.0;;;9.9;;
58306;SDS011;44116;50.884;4.768;2023-02-28T05:26:43;17.5;;;10.1;;
58306;SDS011;44116;50.884;4.768;2023-02-28T05:28:42;15.7;;;9.9;;
58306;SDS011;44116;50.884;4.768;2023-02-28T05:30:41;17.8;;;10.3;;
58306;SDS011;44116;50.884;4.768;2023-02-28T05:32:41;16.3;;;10.0;;
58306;SDS011;44116;50.884;4.768;2023-02-28T05:34:41;17.6;;;10.2;;
58306;SDS011;44116;50.884;4.768;2023-02-28T05:36:39;15.6;;;9.9;;
58306;SDS011;44116;50.884;4.768;2023-02-28T05:38:39;15.1;;;10.2;;
58306;SDS011;44116;50.884;4.768;2023-02-28T05:40:39;14.1;;;9.9;;
58306;SDS011;44116;50.884;4.768;2023-02-28T05:42:38;18.2;;;9.8;;
58306;SDS011;44116;50.884;4.768;2023-02-28T05:44:37;20.8;;;10.3;;
58306;SDS011;44116;50.884;4.768;2023-02-28T05:46:36;15.6;;;11.0;;
58306;SDS011;44116;50.884;4.768;2023-02-28T05:48:37;15.5;;;10.1;;
58306;SDS011;44116;50.884;4.768;2023-02-28T05:50:35;16.2;;;10.0;;
58306;SDS011;44116;50.884;4.768;2023-02-28T05:52:35;15.7;;;9.7;;
58306;SDS011;44116;50.884;4.768;2023-02-28T05:54:34;17.1;;;10.4;;
58306;SDS011;44116;50.884;4.768;2023-02-28T05:58:33;19.4;;;10.8;;
58306;SDS011;44116;50.884;4.768;2023-02-28T06:00:32;16.6;;;10.1;;
58306;SDS011;44116;50.884;4.768;2023-02-28T06:02:32;15.3;;;10.6;;
58306;SDS011;44116;50.884;4.768;2023-02-28T06:04:32;19.5;;;10.7;;
58306;SDS011;44116;50.884;4.768;2023-02-28T06:06:31;18.0;;;11.0;;
58306;SDS011;44116;50.884;4.768;2023-02-28T06:08:30;19.0;;;11.6;;
58306;SDS011;44116;50.884;4.768;2023-02-28T06:10:30;20.1;;;10.8;;
58306;SDS011;44116;50.884;4.768;2023-02-28T06:12:29;18.5;;;10.9;;
58306;SDS011;44116;50.884;4.768;2023-02-28T06:14:29;17.1;;;11.1;;
58306;SDS011;44116;50.884;4.768;2023-02-28T06:18:28;15.6;;;10.3;;
58306;SDS011;44116;50.884;4.768;2023-02-28T06:20:27;16.4;;;10.7;;
58306;SDS011;44116;50.884;4.768;2023-02-28T06:24:26;18.2;;;10.9;;
58306;SDS011;44116;50.884;4.768;2023-02-28T06:26:26;16.3;;;10.4;;
58306;SDS011;44116;50.884;4.768;2023-02-28T06:28:25;18.0;;;10.7;;
58306;SDS011;44116;50.884;4.768;2023-02-28T06:30:24;16.5;;;11.1;;
58306;SDS011;44116;50.884;4.768;2023-02-28T06:32:24;17.0;;;10.7;;
58306;SDS011;44116;50.884;4.768;2023-02-28T06:34:23;17.2;;;10.3;;
58306;SDS011;44116;50.884;4.768;2023-02-28T06:36:23;16.8;;;11.1;;
58306;SDS011;44116;50.884;4.768;2023-02-28T06:38:22;18.0;;;10.5;;
58306;SDS011;44116;50.884;4.768;2023-02-28T06:40:21;16.6;;;10.8;;
58306;SDS011;44116;50.884;4.768;2023-02-28T06:42:21;15.2;;;10.0;;
58306;SDS011;44116;50.884;4.768;2023-02-28T06:44:21;18.2;;;11.2;;
58306;SDS011;44116;50.884;4.768;2023-02-28T06:46:20;16.7;;;10.4;;
58306;SDS011;44116;50.884;4.768;2023-02-28T06:48:19;17.3;;;10.3;;
58306;SDS011;44116;50.884;4.768;2023-02-28T06:50:19;18.9;;;11.1;;
58306;SDS011;44116;50.884;4.768;2023-02-28T06:52:18;17.3;;;10.5;;
58306;SDS011;44116;50.884;4.768;2023-02-28T06:54:18;16.9;;;10.7;;
58306;SDS011;44116;50.884;4.768;2023-02-28T06:56:18;14.0;;;9.7;;
58306;SDS011;44116;50.884;4.768;2023-02-28T06:58:16;18.6;;;10.7;;
58306;SDS011;44116;50.884;4.768;2023-02-28T07:00:16;18.4;;;10.9;;
58306;SDS011;44116;50.884;4.768;2023-02-28T07:02:15;17.1;;;11.0;;
58306;SDS011;44116;50.884;4.768;2023-02-28T07:04:15;20.0;;;11.7;;
58306;SDS011;44116;50.884;4.768;2023-02-28T07:08:14;18.6;;;11.3;;
58306;SDS011;44116;50.884;4.768;2023-02-28T07:10:13;18.9;;;11.7;;
58306;SDS011;44116;50.884;4.768;2023-02-28T07:12:12;15.8;;;10.9;;
58306;SDS011;44116;50.884;4.768;2023-02-28T07:14:12;15.3;;;10.1;;
58306;SDS011;44116;50.884;4.768;2023-02-28T07:16:11;16.0;;;10.4;;
58306;SDS011;44116;50.884;4.768;2023-02-28T07:18:11;16.9;;;10.8;;
58306;SDS011;44116;50.884;4.768;2023-02-28T07:20:11;17.0;;;10.7;;
58306;SDS011;44116;50.884;4.768;2023-02-28T07:22:09;18.0;;;10.0;;
58306;SDS011;44116;50.884;4.768;2023-02-28T07:24:09;17.5;;;10.6;;
58306;SDS011;44116;50.884;4.768;2023-02-28T07:26:12;21.9;;;10.9;;
58306;SDS011;44116;50.884;4.768;2023-02-28T07:28:08;15.3;;;9.9;;
58306;SDS011;44116;50.884;4.768;2023-02-28T07:30:08;17.8;;;10.8;;
58306;SDS011;44116;50.884;4.768;2023-02-28T07:34:06;19.4;;;11.3;;
58306;SDS011;44116;50.884;4.768;2023-02-28T07:36:08;18.5;;;11.1;;
58306;SDS011;44116;50.884;4.768;2023-02-28T07:38:05;15.8;;;10.3;;
58306;SDS011;44116;50.884;4.768;2023-02-28T07:40:06;18.4;;;10.9;;
58306;SDS011;44116;50.884;4.768;2023-02-28T07:42:04;17.2;;;11.0;;
58306;SDS011;44116;50.884;4.768;2023-02-28T07:44:03;17.6;;;10.5;;
58306;SDS011;44116;50.884;4.768;2023-02-28T07:46:04;17.4;;;10.6;;
58306;SDS011;44116;50.884;4.768;2023-02-28T07:48:02;15.6;;;10.4;;
58306;SDS011;44116;50.884;4.768;2023-02-28T07:52:02;14.6;;;10.2;;
58306;SDS011;44116;50.884;4.768;2023-02-28T07:54:01;17.5;;;10.3;;
58306;SDS011;44116;50.884;4.768;2023-02-28T07:56:01;17.5;;;10.9;;
58306;SDS011;44116;50.884;4.768;2023-02-28T07:58:00;14.6;;;9.5;;
58306;SDS011;44116;50.884;4.768;2023-02-28T07:59:59;15.0;;;9.8;;
58306;SDS011;44116;50.884;4.768;2023-02-28T08:01:59;13.9;;;9.4;;
58306;SDS011;44116;50.884;4.768;2023-02-28T08:03:58;15.7;;;9.3;;
58306;SDS011;44116;50.884;4.768;2023-02-28T08:05:57;16.9;;;9.2;;
58306;SDS011;44116;50.884;4.768;2023-02-28T08:07:57;16.0;;;9.6;;
58306;SDS011;44116;50.884;4.768;2023-02-28T08:09:56;14.2;;;8.8;;
58306;SDS011;44116;50.884;4.768;2023-02-28T08:11:56;14.9;;;9.5;;
58306;SDS011;44116;50.884;4.768;2023-02-28T08:13:55;13.9;;;9.1;;
58306;SDS011;44116;50.884;4.768;2023-02-28T08:15:55;15.9;;;8.8;;
58306;SDS011;44116;50.884;4.768;2023-02-28T08:19:54;13.8;;;8.2;;
58306;SDS011;44116;50.884;4.768;2023-02-28T08:21:53;15.7;;;8.4;;
58306;SDS011;44116;50.884;4.768;2023-02-28T08:23:53;13.8;;;8.0;;
58306;SDS011;44116;50.884;4.768;2023-02-28T08:25:52;12.7;;;7.5;;
58306;SDS011;44116;50.884;4.768;2023-02-28T08:27:52;11.7;;;8.1;;
58306;SDS011;44116;50.884;4.768;2023-02-28T08:29:51;14.5;;;8.2;;
58306;SDS011;44116;50.884;4.768;2023-02-28T08:31:50;13.0;;;7.7;;
58306;SDS011;44116;50.884;4.768;2023-02-28T08:33:50;15.0;;;7.9;;
58306;SDS011;44116;50.884;4.768;2023-02-28T08:35:52;11.9;;;7.2;;
58306;SDS011;44116;50.884;4.768;2023-02-28T08:37:49;15.4;;;8.2;;
58306;SDS011;44116;50.884;4.768;2023-02-28T08:39:48;13.0;;;7.3;;
58306;SDS011;44116;50.884;4.768;2023-02-28T08:41:48;12.5;;;6.8;;
58306;SDS011;44116;50.884;4.768;2023-02-28T08:43:47;13.2;;;7.5;;
58306;SDS011;44116;50.884;4.768;2023-02-28T08:45:47;10.1;;;6.7;;
58306;SDS011;44116;50.884;4.768;2023-02-28T08:47:46;11.2;;;6.8;;
58306;SDS011;44116;50.884;4.768;2023-02-28T08:49:46;9.6;;;6.4;;
58306;SDS011;44116;50.884;4.768;2023-02-28T08:51:45;13.2;;;6.7;;
58306;SDS011;44116;50.884;4.768;2023-02-28T08:53:44;11.9;;;6.4;;
58306;SDS011;44116;50.884;4.768;2023-02-28T08:55:44;11.0;;;6.3;;
58306;SDS011;44116;50.884;4.768;2023-02-28T08:57:44;10.8;;;6.1;;
58306;SDS011;44116;50.884;4.768;2023-02-28T08:59:43;9.0;;;5.8;;
58306;SDS011;44116;50.884;4.768;2023-02-28T09:05:41;9.6;;;6.0;;
58306;SDS011;44116;50.884;4.768;2023-02-28T09:07:41;9.2;;;5.9;;
58306;SDS011;44116;50.884;4.768;2023-02-28T09:09:41;10.0;;;5.7;;
58306;SDS011;44116;50.884;4.768;2023-02-28T09:11:40;12.0;;;6.0;;
58306;SDS011;44116;50.884;4.768;2023-02-28T09:13:40;7.9;;;5.2;;
58306;SDS011;44116;50.884;4.768;2023-02-28T09:15:39;10.5;;;4.9;;
58306;SDS011;44116;50.884;4.768;2023-02-28T09:17:38;8.4;;;5.5;;
58306;SDS011;44116;50.884;4.768;2023-02-28T09:19:38;9.6;;;4.9;;
58306;SDS011;44116;50.884;4.768;2023-02-28T09:23:37;8.1;;;5.1;;
58306;SDS011;44116;50.884;4.768;2023-02-28T09:25:37;7.1;;;4.9;;
58306;SDS011;44116;50.884;4.768;2023-02-28T09:27:36;7.1;;;4.8;;
58306;SDS011;44116;50.884;4.768;2023-02-28T09:29:35;7.3;;;4.7;;
58306;SDS011;44116;50.884;4.768;2023-02-28T09:31:35;10.0;;;4.8;;
58306;SDS011;44116;50.884;4.768;2023-02-28T09:33:34;7.5;;;4.3;;
58306;SDS011;44116;50.884;4.768;2023-02-28T09:35:34;7.7;;;4.6;;
58306;SDS011;44116;50.884;4.768;2023-02-28T09:37:33;6.8;;;4.4;;
58306;SDS011;44116;50.884;4.768;2023-02-28T09:41:38;6.7;;;4.5;;
58306;SDS011;44116;50.884;4.768;2023-02-28T09:43:34;7.1;;;4.1;;
58306;SDS011;44116;50.884;4.768;2023-02-28T09:45:34;6.0;;;4.0;;
58306;SDS011;44116;50.884;4.768;2023-02-28T09:47:33;8.9;;;4.4;;
58306;SDS011;44116;50.884;4.768;2023-02-28T09:49:37;5.6;;;4.2;;
58306;SDS011;44116;50.884;4.768;2023-02-28T09:51:37;7.1;;;4.7;;
58306;SDS011;44116;50.884;4.768;2023-02-28T09:53:31;8.3;;;4.5;;
58306;SDS011;44116;50.884;4.768;2023-02-28T09:55:33;6.8;;;3.9;;
58306;SDS011;44116;50.884;4.768;2023-02-28T09:59:39;5.7;;;3.7;;
58306;SDS011;44116;50.884;4.768;2023-02-28T10:01:32;5.4;;;3.3;;
58306;SDS011;44116;50.884;4.768;2023-02-28T10:03:31;8.2;;;4.3;;
58306;SDS011;44116;50.884;4.768;2023-02-28T10:05:29;7.5;;;3.5;;
58306;SDS011;44116;50.884;4.768;2023-02-28T10:09:27;6.1;;;3.6;;
58306;SDS011;44116;50.884;4.768;2023-02-28T10:11:26;5.8;;;3.4;;
58306;SDS011;44116;50.884;4.768;2023-02-28T10:13:27;6.0;;;3.7;;
58306;SDS011;44116;50.884;4.768;2023-02-28T10:15:26;9.7;;;4.2;;
58306;SDS011;44116;50.884;4.768;2023-02-28T10:17:26;6.8;;;3.6;;
58306;SDS011;44116;50.884;4.768;2023-02-28T10:19:27;6.9;;;3.8;;
58306;SDS011;44116;50.884;4.768;2023-02-28T10:21:26;4.5;;;3.0;;
58306;SDS011;44116;50.884;4.768;2023-02-28T10:23:25;6.3;;;3.5;;
58306;SDS011;44116;50.884;4.768;2023-02-28T10:25:24;4.6;;;3.1;;
58306;SDS011;44116;50.884;4.768;2023-02-28T10:27:22;6.1;;;3.4;;
58306;SDS011;44116;50.884;4.768;2023-02-28T10:31:20;5.4;;;3.3;;
58306;SDS011;44116;50.884;4.768;2023-02-28T10:33:23;5.1;;;3.4;;
58306;SDS011;44116;50.884;4.768;2023-02-28T10:35:21;6.8;;;3.3;;
58306;SDS011;44116;50.884;4.768;2023-02-28T10:37:19;4.5;;;3.0;;
58306;SDS011;44116;50.884;4.768;2023-02-28T10:39:36;6.0;;;2.9;;
58306;SDS011;44116;50.884;4.768;2023-02-28T10:43:19;4.6;;;3.2;;
58306;SDS011;44116;50.884;4.768;2023-02-28T10:47:19;7.0;;;3.0;;
58306;SDS011;44116;50.884;4.768;2023-02-28T10:49:20;5.7;;;3.4;;
58306;SDS011;44116;50.884;4.768;2023-02-28T10:51:16;5.8;;;3.2;;
58306;SDS011;44116;50.884;4.768;2023-02-28T10:53:25;5.8;;;3.3;;
58306;SDS011;44116;50.884;4.768;2023-02-28T10:55:20;4.4;;;3.0;;
58306;SDS011;44116;50.884;4.768;2023-02-28T10:57:18;6.3;;;3.5;;
58306;SDS011;44116;50.884;4.768;2023-02-28T10:59:26;4.9;;;3.2;;
58306;SDS011;44116;50.884;4.768;2023-02-28T11:01:15;4.9;;;2.9;;
58306;SDS011;44116;50.884;4.768;2023-02-28T11:05:23;5.5;;;3.0;;
58306;SDS011;44116;50.884;4.768;2023-02-28T11:07:18;5.8;;;2.7;;
58306;SDS011;44116;50.884;4.768;2023-02-28T11:11:11;4.4;;;2.8;;
58306;SDS011;44116;50.884;4.768;2023-02-28T11:15:21;5.8;;;3.2;;
58306;SDS011;44116;50.884;4.768;2023-02-28T11:17:15;5.4;;;3.1;;
58306;SDS011;44116;50.884;4.768;2023-02-28T11:19:19;5.4;;;2.8;;
58306;SDS011;44116;50.884;4.768;2023-02-28T11:21:09;4.9;;;2.4;;
58306;SDS011;44116;50.884;4.768;2023-02-28T11:23:12;3.9;;;2.7;;
58306;SDS011;44116;50.884;4.768;2023-02-28T11:27:25;4.2;;;2.5;;
58306;SDS011;44116;50.884;4.768;2023-02-28T11:29:12;3.9;;;2.6;;
58306;SDS011;44116;50.884;4.768;2023-02-28T11:31:17;5.3;;;2.5;;
58306;SDS011;44116;50.884;4.768;2023-02-28T11:33:21;4.3;;;2.7;;
58306;SDS011;44116;50.884;4.768;2023-02-28T11:35:17;4.4;;;2.6;;
58306;SDS011;44116;50.884;4.768;2023-02-28T11:37:11;4.6;;;2.7;;
58306;SDS011;44116;50.884;4.768;2023-02-28T11:39:10;4.9;;;2.8;;
58306;SDS011;44116;50.884;4.768;2023-02-28T11:41:16;4.1;;;2.7;;
58306;SDS011;44116;50.884;4.768;2023-02-28T11:43:13;3.3;;;2.5;;
58306;SDS011;44116;50.884;4.768;2023-02-28T11:45:12;5.9;;;3.0;;
58306;SDS011;44116;50.884;4.768;2023-02-28T11:47:11;4.5;;;2.7;;
58306;SDS011;44116;50.884;4.768;2023-02-28T11:49:14;4.4;;;3.0;;
58306;SDS011;44116;50.884;4.768;2023-02-28T11:51:10;4.5;;;2.7;;
58306;SDS011;44116;50.884;4.768;2023-02-28T11:53:09;5.0;;;2.6;;
58306;SDS011;44116;50.884;4.768;2023-02-28T11:55:14;4.0;;;2.9;;
58306;SDS011;44116;50.884;4.768;2023-02-28T11:57:07;4.3;;;2.8;;
58306;SDS011;44116;50.884;4.768;2023-02-28T11:59:10;3.2;;;2.4;;
58306;SDS011;44116;50.884;4.768;2023-02-28T12:01:09;3.4;;;2.3;;
58306;SDS011;44116;50.884;4.768;2023-02-28T12:03:03;4.5;;;2.7;;
58306;SDS011;44116;50.884;4.768;2023-02-28T12:05:08;3.6;;;2.8;;
58306;SDS011;44116;50.884;4.768;2023-02-28T12:07:03;4.9;;;2.7;;
58306;SDS011;44116;50.884;4.768;2023-02-28T12:09:12;6.0;;;3.0;;
58306;SDS011;44116;50.884;4.768;2023-02-28T12:15:05;4.2;;;2.7;;
58306;SDS011;44116;50.884;4.768;2023-02-28T12:17:03;3.2;;;2.6;;
58306;SDS011;44116;50.884;4.768;2023-02-28T12:19:05;4.7;;;3.3;;
58306;SDS011;44116;50.884;4.768;2023-02-28T12:21:01;4.2;;;2.6;;
58306;SDS011;44116;50.884;4.768;2023-02-28T12:23:06;5.7;;;3.1;;
58306;SDS011;44116;50.884;4.768;2023-02-28T12:25:09;3.8;;;2.5;;
58306;SDS011;44116;50.884;4.768;2023-02-28T12:26:55;4.2;;;2.9;;
58306;SDS011;44116;50.884;4.768;2023-02-28T12:32:56;5.2;;;3.1;;
58306;SDS011;44116;50.884;4.768;2023-02-28T12:34:55;4.1;;;2.8;;
58306;SDS011;44116;50.884;4.768;2023-02-28T12:40:54;4.2;;;2.9;;
58306;SDS011;44116;50.884;4.768;2023-02-28T12:42:52;4.1;;;3.1;;
58306;SDS011;44116;50.884;4.768;2023-02-28T12:46:51;3.5;;;2.7;;
58306;SDS011;44116;50.884;4.768;2023-02-28T12:48:52;4.8;;;2.9;;
58306;SDS011;44116;50.884;4.768;2023-02-28T12:50:48;3.8;;;2.7;;
58306;SDS011;44116;50.884;4.768;2023-02-28T12:54:50;4.0;;;2.8;;
58306;SDS011;44116;50.884;4.768;2023-02-28T12:56:50;6.8;;;2.9;;
58306;SDS011;44116;50.884;4.768;2023-02-28T12:58:49;4.9;;;3.1;;
58306;SDS011;44116;50.884;4.768;2023-02-28T13:01:01;3.9;;;2.9;;
58306;SDS011;44116;50.884;4.768;2023-02-28T13:03:00;4.4;;;2.7;;
58306;SDS011;44116;50.884;4.768;2023-02-28T13:06:56;4.5;;;3.0;;
58306;SDS011;44116;50.884;4.768;2023-02-28T13:08:59;4.3;;;2.7;;
58306;SDS011;44116;50.884;4.768;2023-02-28T13:10:45;3.9;;;2.8;;
58306;SDS011;44116;50.884;4.768;2023-02-28T13:14:42;5.2;;;3.2;;
58306;SDS011;44116;50.884;4.768;2023-02-28T13:16:55;4.8;;;3.0;;
58306;SDS011;44116;50.884;4.768;2023-02-28T13:18:44;4.1;;;2.8;;
58306;SDS011;44116;50.884;4.768;2023-02-28T13:20:48;4.1;;;2.9;;
58306;SDS011;44116;50.884;4.768;2023-02-28T13:22:42;5.0;;;3.0;;
58306;SDS011;44116;50.884;4.768;2023-02-28T13:24:44;4.5;;;2.9;;
58306;SDS011;44116;50.884;4.768;2023-02-28T13:32:38;5.1;;;3.0;;
58306;SDS011;44116;50.884;4.768;2023-02-28T13:34:39;3.7;;;2.6;;
58306;SDS011;44116;50.884;4.768;2023-02-28T13:36:37;5.7;;;2.8;;
58306;SDS011;44116;50.884;4.768;2023-02-28T13:38:40;6.3;;;3.2;;
58306;SDS011;44116;50.884;4.768;2023-02-28T13:40:36;7.3;;;3.0;;
58306;SDS011;44116;50.884;4.768;2023-02-28T13:42:47;6.9;;;3.2;;
58306;SDS011;44116;50.884;4.768;2023-02-28T13:48:35;4.2;;;3.0;;
58306;SDS011;44116;50.884;4.768;2023-02-28T13:50:35;5.5;;;2.8;;
58306;SDS011;44116;50.884;4.768;2023-02-28T13:52:43;4.5;;;2.9;;
58306;SDS011;44116;50.884;4.768;2023-02-28T13:54:43;4.1;;;3.2;;
58306;SDS011;44116;50.884;4.768;2023-02-28T13:56:41;7.3;;;2.9;;
58306;SDS011;44116;50.884;4.768;2023-02-28T13:58:41;5.3;;;3.2;;
58306;SDS011;44116;50.884;4.768;2023-02-28T14:00:43;5.1;;;3.1;;
58306;SDS011;44116;50.884;4.768;2023-02-28T14:02:43;5.7;;;3.5;;
58306;SDS011;44116;50.884;4.768;2023-02-28T14:04:51;4.9;;;3.1;;